Time;durP1;ratioP1;P1;durP2;ratioP2;P2;SDS_P1;SDS_P2;PMS_P1;PMS_P2;Temp;Humidity;BMP_temperature;BMP_pressure;BME280_temperature;BME280_humidity;BME280_pressure;Samples;Min_cycle;Max_cycle;Signal;HPM_P1;HPM_P2
2023/04/23 00:02:10;;;;;;;25.02;17.35;;;9.50;99.90;;;;;;4928337;29;20067;-65
2023/04/23 00:04:37;;;;;;;24.95;17.55;;;9.50;99.90;;;;;;4926353;29;20075;-66
2023/04/23 00:07:03;;;;;;;27.67;18.58;;;9.50;99.90;;;;;;4928376;29;20047;-65
2023/04/23 00:09:31;;;;;;;25.80;19.15;;;9.50;99.90;;;;;;4930335;29;20055;-65
2023/04/23 00:11:57;;;;;;;27.38;19.02;;;9.50;99.90;;;;;;4928795;29;20066;-65
2023/04/23 00:14:22;;;;;;;27.63;19.63;;;9.50;99.90;;;;;;4923938;29;20063;-65
2023/04/23 00:16:48;;;;;;;31.25;21.05;;;9.50;99.90;;;;;;4931161;29;20048;-65
2023/04/23 00:19:14;;;;;;;27.98;20.05;;;9.50;99.90;;;;;;4933941;29;20048;-65
2023/04/23 00:21:39;;;;;;;31.92;22.85;;;9.50;99.90;;;;;;4933711;29;20051;-65
2023/04/23 00:24:06;;;;;;;30.63;21.80;;;9.50;99.90;;;;;;4935266;29;20042;-65
2023/04/23 00:26:31;;;;;;;32.10;22.15;;;9.50;99.90;;;;;;4936560;29;20079;-65
2023/04/23 00:28:57;;;;;;;33.10;22.77;;;9.50;99.90;;;;;;4936357;29;20433;-65
2023/04/23 00:31:23;;;;;;;38.75;25.40;;;9.50;99.90;;;;;;4934963;29;20047;-65
2023/04/23 00:33:48;;;;;;;41.03;26.98;;;9.50;99.90;;;;;;4934212;29;20586;-65
2023/04/23 00:36:14;;;;;;;42.53;27.60;;;9.40;99.90;;;;;;4935404;29;20043;-65
2023/04/23 00:38:40;;;;;;;45.65;29.02;;;9.40;99.90;;;;;;4935679;29;20471;-65
2023/04/23 00:41:06;;;;;;;45.60;30.05;;;9.40;99.90;;;;;;4936639;29;20058;-64
2023/04/23 00:43:32;;;;;;;49.90;31.58;;;9.50;99.90;;;;;;4937416;29;20075;-65
2023/04/23 00:45:58;;;;;;;50.05;31.95;;;9.50;99.90;;;;;;4936008;29;20063;-65
2023/04/23 00:48:24;;;;;;;47.95;31.08;;;9.50;99.90;;;;;;4936543;29;20090;-65
2023/04/23 00:50:58;;;;;;;48.45;31.38;;;9.50;99.90;;;;;;4934975;29;20043;-65
2023/04/23 00:53:24;;;;;;;52.03;32.78;;;9.50;99.90;;;;;;4936575;29;20305;-65
2023/04/23 00:55:50;;;;;;;53.42;33.80;;;9.50;99.90;;;;;;4936506;29;20058;-65
2023/04/23 00:58:16;;;;;;;57.55;35.05;;;9.50;99.90;;;;;;4936544;29;20036;-65
2023/04/23 01:00:47;;;;;;;57.45;35.78;;;9.50;99.90;;;;;;4936145;29;20091;-65
2023/04/23 01:03:13;;;;;;;61.05;37.47;;;9.50;99.90;;;;;;4933401;29;20119;-66
2023/04/23 01:05:41;;;;;;;57.80;37.70;;;9.50;99.90;;;;;;4931381;29;20500;-65
2023/04/23 01:08:11;;;;;;;60.05;38.83;;;9.50;99.90;;;;;;4933765;29;20162;-64
2023/04/23 01:10:37;;;;;;;67.50;41.78;;;9.60;99.90;;;;;;4933478;29;20051;-65
2023/04/23 01:13:03;;;;;;;62.13;37.47;;;9.50;99.90;;;;;;4934499;29;20138;-65
2023/04/23 01:15:29;;;;;;;66.95;40.78;;;9.50;99.90;;;;;;4931461;29;20058;-65
2023/04/23 01:17:57;;;;;;;66.28;40.22;;;9.60;99.90;;;;;;4932565;29;20043;-65
2023/04/23 01:20:23;;;;;;;65.53;40.58;;;9.60;99.90;;;;;;4934314;29;20054;-65
2023/04/23 01:22:48;;;;;;;63.60;40.67;;;9.50;99.90;;;;;;4935130;29;20047;-65
2023/04/23 01:25:14;;;;;;;67.82;41.63;;;9.50;99.90;;;;;;4934363;29;20043;-65
2023/04/23 01:27:40;;;;;;;65.95;41.50;;;9.50;99.90;;;;;;4933322;29;20051;-65
2023/04/23 01:30:07;;;;;;;62.25;40.08;;;9.50;99.90;;;;;;4931801;29;20035;-66
2023/04/23 01:32:34;;;;;;;64.90;40.55;;;9.50;99.90;;;;;;4933468;29;20171;-66
2023/04/23 01:35:00;;;;;;;67.03;40.95;;;9.50;99.90;;;;;;4931519;29;20403;-66
2023/04/23 01:37:28;;;;;;;62.38;40.03;;;9.50;99.90;;;;;;4928067;29;20047;-66
2023/04/23 01:39:53;;;;;;;65.43;40.05;;;9.50;99.90;;;;;;4932484;29;20099;-66
2023/04/23 01:42:19;;;;;;;60.13;39.85;;;9.40;99.90;;;;;;4934839;29;20039;-66
2023/04/23 01:44:44;;;;;;;67.40;41.42;;;9.40;99.90;;;;;;4929396;29;20040;-66
2023/04/23 01:47:10;;;;;;;62.30;40.38;;;9.40;99.90;;;;;;4930979;29;20031;-65
2023/04/23 01:49:36;;;;;;;61.03;39.45;;;9.30;99.90;;;;;;4929582;29;20431;-66
2023/04/23 01:52:02;;;;;;;57.60;37.83;;;9.30;99.90;;;;;;4929449;29;20098;-66
2023/04/23 01:54:28;;;;;;;62.25;39.38;;;9.20;99.90;;;;;;4930217;29;20126;-66
2023/04/23 01:56:54;;;;;;;61.63;40.25;;;9.20;99.90;;;;;;4928994;29;20409;-66
2023/04/23 01:59:21;;;;;;;58.40;37.92;;;9.20;99.90;;;;;;4929196;29;20123;-66
2023/04/23 02:01:48;;;;;;;58.63;38.17;;;9.20;99.90;;;;;;4931176;29;20039;-66
2023/04/23 02:04:15;;;;;;;63.58;39.38;;;9.10;99.90;;;;;;4928315;29;20042;-66
2023/04/23 02:06:44;;;;;;;59.53;37.38;;;9.10;99.90;;;;;;4930676;29;20123;-66
2023/04/23 02:09:10;;;;;;;60.60;37.63;;;9.00;99.90;;;;;;4928245;29;20067;-66
2023/04/23 02:11:36;;;;;;;54.88;36.95;;;9.00;99.90;;;;;;4930206;29;20130;-66
2023/04/23 02:14:03;;;;;;;61.65;38.60;;;9.00;99.90;;;;;;4927994;29;20150;-66
2023/04/23 02:16:28;;;;;;;58.50;38.42;;;9.00;99.90;;;;;;4930192;29;20047;-66
2023/04/23 02:18:54;;;;;;;57.80;36.67;;;8.90;99.90;;;;;;4930101;29;20515;-65
2023/04/23 02:21:21;;;;;;;60.53;39.67;;;8.90;99.90;;;;;;4929950;29;20131;-64
2023/04/23 02:23:47;;;;;;;61.63;38.65;;;8.90;99.90;;;;;;4929028;29;20048;-65
2023/04/23 02:26:12;;;;;;;61.60;38.95;;;8.90;99.90;;;;;;4928682;29;20042;-65
2023/04/23 02:28:38;;;;;;;59.47;37.83;;;8.90;99.90;;;;;;4930767;29;20126;-66
2023/04/23 02:31:04;;;;;;;62.88;39.08;;;8.90;99.90;;;;;;4928040;29;20048;-65
2023/04/23 02:33:29;;;;;;;61.97;39.10;;;8.90;99.90;;;;;;4930462;29;20079;-65
2023/04/23 02:35:55;;;;;;;60.53;39.15;;;8.80;99.90;;;;;;4923580;29;20070;-66
2023/04/23 02:38:20;;;;;;;60.88;39.53;;;8.80;99.90;;;;;;4934998;29;20039;-65
2023/04/23 02:40:46;;;;;;;62.28;39.20;;;8.80;99.90;;;;;;4932402;29;20079;-66
2023/04/23 02:43:12;;;;;;;62.83;39.30;;;8.80;99.90;;;;;;4926971;29;20052;-65
2023/04/23 02:45:37;;;;;;;63.72;39.13;;;8.80;99.90;;;;;;4933553;29;20044;-66
2023/04/23 02:48:03;;;;;;;61.35;38.75;;;8.70;99.90;;;;;;4933621;29;20047;-65
2023/04/23 02:50:29;;;;;;;61.83;37.80;;;8.70;99.90;;;;;;4932041;29;20043;-65
2023/04/23 02:52:54;;;;;;;56.78;35.22;;;8.60;99.90;;;;;;4928762;29;20036;-65
2023/04/23 02:55:20;;;;;;;55.58;34.70;;;8.60;99.90;;;;;;4928549;29;20039;-65
2023/04/23 02:57:46;;;;;;;51.08;34.10;;;8.60;99.90;;;;;;4932939;29;20106;-65
2023/04/23 03:00:13;;;;;;;58.95;37.75;;;8.60;99.90;;;;;;4933620;29;20040;-64
2023/04/23 03:02:39;;;;;;;59.03;38.53;;;8.60;99.90;;;;;;4923422;29;20102;-65
2023/04/23 03:05:06;;;;;;;66.65;39.63;;;8.60;99.90;;;;;;4929790;29;20035;-65
2023/04/23 03:07:31;;;;;;;65.35;40.00;;;8.60;99.90;;;;;;4929385;29;20066;-64
2023/04/23 03:09:57;;;;;;;73.30;41.97;;;8.60;99.90;;;;;;4928568;29;20375;-64
2023/04/23 03:12:23;;;;;;;84.13;41.63;;;8.70;99.90;;;;;;4927460;29;20044;-65
2023/04/23 03:14:48;;;;;;;65.70;39.60;;;8.70;99.90;;;;;;4942460;29;20070;-65
2023/04/23 03:17:14;;;;;;;69.28;39.22;;;8.70;99.90;;;;;;4928108;29;20043;-65
2023/04/23 03:19:39;;;;;;;86.68;41.00;;;8.70;99.90;;;;;;4929758;29;20096;-65
2023/04/23 03:22:05;;;;;;;61.75;39.40;;;8.70;99.90;;;;;;4928640;29;20564;-65
2023/04/23 03:24:32;;;;;;;56.63;36.92;;;8.70;99.90;;;;;;4926920;29;20040;-65
2023/04/23 03:26:57;;;;;;;61.40;38.65;;;8.70;99.90;;;;;;4928662;29;20040;-65
2023/04/23 03:29:23;;;;;;;58.47;37.75;;;8.70;99.90;;;;;;4927615;29;20340;-64
2023/04/23 03:31:49;;;;;;;56.30;37.38;;;8.70;99.90;;;;;;4927975;29;20055;-65
2023/04/23 03:34:14;;;;;;;59.42;37.92;;;8.70;99.90;;;;;;4924461;29;20047;-65
2023/04/23 03:36:40;;;;;;;57.95;36.75;;;8.70;99.90;;;;;;4927391;29;20067;-65
2023/04/23 03:39:06;;;;;;;60.75;38.85;;;8.70;99.90;;;;;;4927749;29;21022;-65
2023/04/23 03:41:32;;;;;;;61.45;37.78;;;8.80;99.90;;;;;;4927699;29;20151;-65
2023/04/23 03:43:58;;;;;;;70.97;39.22;;;8.70;99.90;;;;;;4928073;29;20127;-65
2023/04/23 03:46:23;;;;;;;61.75;37.30;;;8.80;99.90;;;;;;4928897;29;20134;-64
2023/04/23 03:48:49;;;;;;;59.88;38.08;;;8.70;99.90;;;;;;4929253;29;20143;-65
2023/04/23 03:51:14;;;;;;;59.83;38.55;;;8.80;99.90;;;;;;4929688;29;20039;-65
2023/04/23 03:53:40;;;;;;;68.70;40.17;;;8.80;99.90;;;;;;4932301;29;20098;-64
2023/04/23 03:56:06;;;;;;;63.42;39.47;;;8.70;99.90;;;;;;4924509;29;20355;-65
2023/04/23 03:58:31;;;;;;;69.35;41.78;;;8.80;99.90;;;;;;4929065;29;20091;-65
2023/04/23 04:00:57;;;;;;;73.45;41.60;;;8.70;99.90;;;;;;4930829;29;20177;-64
2023/04/23 04:03:22;;;;;;;73.45;43.50;;;8.80;99.90;;;;;;4929367;29;20058;-64
2023/04/23 04:05:48;;;;;;;67.72;41.30;;;8.80;99.90;;;;;;4931849;29;20078;-65
2023/04/23 04:08:13;;;;;;;68.25;42.30;;;8.80;99.90;;;;;;4931414;29;20503;-65
2023/04/23 04:10:39;;;;;;;69.63;43.20;;;8.80;99.90;;;;;;4931047;29;20091;-65
2023/04/23 04:13:05;;;;;;;70.40;43.13;;;8.80;99.90;;;;;;4931912;29;20104;-65
2023/04/23 04:15:31;;;;;;;78.13;44.72;;;8.80;99.90;;;;;;4925990;29;20036;-65
2023/04/23 04:17:59;;;;;;;70.50;43.05;;;8.80;99.90;;;;;;4928166;29;20051;-64
2023/04/23 04:20:27;;;;;;;70.10;43.05;;;8.70;99.90;;;;;;4930798;29;20194;-65
2023/04/23 04:22:53;;;;;;;73.18;43.95;;;8.80;99.90;;;;;;4930385;29;20127;-65
2023/04/23 04:25:21;;;;;;;71.88;43.97;;;8.80;99.90;;;;;;4931009;29;20114;-65
2023/04/23 04:27:46;;;;;;;75.10;43.00;;;8.80;99.90;;;;;;4931425;29;20047;-66
2023/04/23 04:30:13;;;;;;;74.53;44.25;;;8.80;99.90;;;;;;4930316;29;20044;-66
2023/04/23 04:32:39;;;;;;;83.07;47.40;;;8.80;99.90;;;;;;4928870;29;20126;-66
2023/04/23 04:35:05;;;;;;;72.03;41.80;;;8.80;99.90;;;;;;4932072;29;20039;-66
2023/04/23 04:37:31;;;;;;;71.95;43.72;;;8.80;99.90;;;;;;4929929;29;20424;-65
2023/04/23 04:39:57;;;;;;;67.28;41.22;;;8.80;99.90;;;;;;4931559;29;20044;-66
2023/04/23 04:42:24;;;;;;;68.28;41.85;;;8.90;99.90;;;;;;4930024;29;20433;-66
2023/04/23 04:44:50;;;;;;;73.28;43.28;;;8.90;99.90;;;;;;4930173;29;20063;-66
2023/04/23 04:47:15;;;;;;;77.22;44.13;;;8.90;99.90;;;;;;4931029;29;20044;-65
2023/04/23 04:49:41;;;;;;;70.32;41.55;;;8.90;99.90;;;;;;4932294;29;20054;-66
2023/04/23 04:52:07;;;;;;;70.50;42.00;;;8.90;99.90;;;;;;4929493;29;20040;-66
2023/04/23 04:54:32;;;;;;;67.28;41.35;;;8.90;99.90;;;;;;4924494;29;20047;-66
2023/04/23 04:56:58;;;;;;;76.07;42.85;;;9.00;99.90;;;;;;4931643;29;20043;-66
2023/04/23 04:59:23;;;;;;;69.65;41.78;;;9.00;99.90;;;;;;4932902;29;20469;-64
2023/04/23 05:01:49;;;;;;;69.28;42.15;;;9.00;99.90;;;;;;4928806;29;20119;-65
2023/04/23 05:04:15;;;;;;;78.35;44.45;;;9.00;99.90;;;;;;4927981;29;20040;-65
2023/04/23 05:06:40;;;;;;;74.25;44.20;;;9.00;99.90;;;;;;4931651;29;20665;-65
2023/04/23 05:09:09;;;;;;;75.50;44.33;;;9.00;99.90;;;;;;4930910;29;20418;-65
2023/04/23 05:11:35;;;;;;;76.50;45.30;;;9.00;99.90;;;;;;4930549;29;20048;-65
2023/04/23 05:14:00;;;;;;;77.28;43.88;;;9.10;99.90;;;;;;4933759;29;20062;-65
2023/04/23 05:16:26;;;;;;;71.30;43.10;;;9.00;99.90;;;;;;4932134;29;20043;-65
2023/04/23 05:18:51;;;;;;;79.95;45.40;;;9.10;99.90;;;;;;4934945;29;20036;-65
2023/04/23 05:21:18;;;;;;;76.20;44.05;;;9.10;99.90;;;;;;4933355;29;20478;-65
2023/04/23 05:23:44;;;;;;;77.93;45.08;;;9.10;99.90;;;;;;4930709;29;20050;-65
2023/04/23 05:26:10;;;;;;;73.82;43.38;;;9.20;99.90;;;;;;4933202;29;20044;-65
2023/04/23 05:28:36;;;;;;;78.70;44.97;;;9.20;99.90;;;;;;4932907;29;20495;-65
2023/04/23 05:31:02;;;;;;;77.90;44.22;;;9.30;99.90;;;;;;4933732;29;20063;-65
2023/04/23 05:33:27;;;;;;;71.93;42.88;;;9.40;99.90;;;;;;4930055;29;20051;-66
2023/04/23 05:35:53;;;;;;;73.40;43.60;;;9.50;99.90;;;;;;4932647;29;20051;-66
2023/04/23 05:38:19;;;;;;;69.82;41.25;;;9.50;99.90;;;;;;4935103;29;20059;-64
2023/04/23 05:40:45;;;;;;;76.57;42.72;;;9.50;99.90;;;;;;4935280;29;20042;-65
2023/04/23 05:43:11;;;;;;;71.22;40.45;;;9.60;99.90;;;;;;4932981;29;20142;-66
2023/04/23 05:45:36;;;;;;;70.05;41.97;;;9.70;99.90;;;;;;4934358;29;20412;-66
2023/04/23 05:48:02;;;;;;;67.65;41.78;;;9.70;99.90;;;;;;4932705;29;20094;-66
2023/04/23 05:50:28;;;;;;;66.45;39.03;;;9.80;99.90;;;;;;4932957;29;20063;-65
2023/04/23 05:52:54;;;;;;;62.67;38.80;;;9.90;99.90;;;;;;4930916;29;20055;-64
2023/04/23 05:55:20;;;;;;;67.15;39.50;;;9.90;99.90;;;;;;4930498;29;20150;-66
2023/04/23 05:57:46;;;;;;;61.10;39.08;;;9.90;99.90;;;;;;4948472;28;20036;-66
2023/04/23 06:00:12;;;;;;;56.85;36.15;;;10.00;99.90;;;;;;4920926;29;20099;-67
2023/04/23 06:02:38;;;;;;;56.72;35.53;;;10.10;99.90;;;;;;4932751;29;20040;-67
2023/04/23 06:05:05;;;;;;;58.65;37.03;;;10.20;99.90;;;;;;4934468;29;20048;-66
2023/04/23 06:07:31;;;;;;;57.17;35.40;;;10.30;99.90;;;;;;4933387;29;20039;-65
2023/04/23 06:09:57;;;;;;;60.55;35.42;;;10.40;99.90;;;;;;4932703;29;20051;-65
2023/04/23 06:12:22;;;;;;;56.92;35.85;;;10.50;99.90;;;;;;4931108;29;20056;-66
2023/04/23 06:14:51;;;;;;;55.20;34.05;;;10.60;99.90;;;;;;4933473;29;20436;-65
2023/04/23 06:17:16;;;;;;;60.17;36.80;;;10.70;99.90;;;;;;4931477;29;20044;-66
2023/04/23 06:19:42;;;;;;;56.38;35.35;;;10.70;99.90;;;;;;4932254;29;20044;-66
2023/04/23 06:22:08;;;;;;;55.30;34.85;;;10.80;99.90;;;;;;4933803;29;20083;-66
2023/04/23 06:24:34;;;;;;;56.00;35.05;;;10.90;99.90;;;;;;4934089;29;20424;-66
2023/04/23 06:27:01;;;;;;;55.35;35.33;;;10.90;99.90;;;;;;4935057;29;20047;-66
2023/04/23 06:29:27;;;;;;;54.97;35.40;;;11.10;99.90;;;;;;4925779;29;20052;-66
2023/04/23 06:32:00;;;;;;;54.80;33.88;;;11.20;99.90;;;;;;4929187;29;20428;-66
2023/04/23 06:34:28;;;;;;;49.80;31.95;;;11.20;99.90;;;;;;4932207;29;20064;-67
2023/04/23 06:36:54;;;;;;;51.42;33.28;;;11.30;99.90;;;;;;4925780;29;20118;-67
2023/04/23 06:39:29;;;;;;;52.42;32.33;;;11.40;99.90;;;;;;4933041;29;20472;-67
2023/04/23 06:41:56;;;;;;;46.63;30.10;;;11.50;99.90;;;;;;4933530;29;20135;-67
2023/04/23 06:44:22;;;;;;;45.75;29.60;;;11.60;99.90;;;;;;4933217;29;20478;-66
2023/04/23 06:46:48;;;;;;;49.75;32.55;;;11.70;99.90;;;;;;4934015;29;20167;-66
2023/04/23 06:49:13;;;;;;;51.35;32.58;;;11.80;99.90;;;;;;4932366;29;20040;-67
2023/04/23 06:51:39;;;;;;;45.20;31.08;;;11.80;99.90;;;;;;4930069;29;20172;-65
2023/04/23 06:54:04;;;;;;;45.90;31.05;;;11.80;99.90;;;;;;4922795;29;20487;-66
2023/04/23 06:56:30;;;;;;;43.63;29.38;;;11.90;99.90;;;;;;4929773;29;20522;-65
2023/04/23 06:58:56;;;;;;;44.67;29.70;;;11.90;99.90;;;;;;4931595;29;20163;-65
2023/04/23 07:01:21;;;;;;;43.65;28.83;;;12.00;99.90;;;;;;4926440;29;20413;-65
2023/04/23 07:03:50;;;;;;;40.55;28.27;;;12.10;99.90;;;;;;4933887;29;20128;-64
2023/04/23 07:06:15;;;;;;;41.80;28.70;;;12.10;99.90;;;;;;4933273;29;20043;-66
2023/04/23 07:08:43;;;;;;;44.75;29.55;;;12.30;99.90;;;;;;4927180;29;20534;-65
2023/04/23 07:11:09;;;;;;;42.67;29.10;;;12.20;99.90;;;;;;4929514;29;20451;-66
2023/04/23 07:13:35;;;;;;;39.47;27.30;;;12.20;99.90;;;;;;4933143;29;20051;-65
2023/04/23 07:16:00;;;;;;;39.70;27.70;;;12.30;99.90;;;;;;4930942;29;20502;-66
2023/04/23 07:18:26;;;;;;;39.35;27.35;;;12.40;99.90;;;;;;4931072;29;20139;-66
2023/04/23 07:20:52;;;;;;;41.92;27.98;;;12.50;99.90;;;;;;4931128;29;20043;-66
2023/04/23 07:23:17;;;;;;;40.33;28.38;;;12.60;99.90;;;;;;4929703;29;20359;-66
2023/04/23 07:25:43;;;;;;;39.83;27.77;;;12.70;99.90;;;;;;4932453;29;20062;-66
2023/04/23 07:28:08;;;;;;;38.10;27.52;;;12.70;99.90;;;;;;4930543;29;20050;-66
2023/04/23 07:30:34;;;;;;;38.08;26.45;;;12.80;99.90;;;;;;4920973;29;20063;-66
2023/04/23 07:32:59;;;;;;;38.25;26.75;;;12.80;99.90;;;;;;4921926;29;20495;-66
2023/04/23 07:35:25;;;;;;;36.97;27.05;;;12.90;99.90;;;;;;4922744;29;20039;-66
2023/04/23 07:37:52;;;;;;;37.75;26.13;;;13.00;99.90;;;;;;4915861;29;20123;-66
2023/04/23 07:40:23;;;;;;;36.42;25.73;;;13.10;99.90;;;;;;4930479;29;20111;-65
2023/04/23 07:42:50;;;;;;;37.13;27.00;;;13.20;99.90;;;;;;4930214;29;20047;-66
2023/04/23 07:45:16;;;;;;;36.67;25.10;;;13.30;99.90;;;;;;4931579;29;20110;-66
2023/04/23 07:47:42;;;;;;;36.00;25.92;;;13.40;99.90;;;;;;4931970;29;20135;-66
2023/04/23 07:50:08;;;;;;;32.22;24.65;;;13.40;99.90;;;;;;4928857;29;20122;-66
2023/04/23 07:52:33;;;;;;;34.22;24.67;;;13.50;99.90;;;;;;4930519;29;20071;-66
2023/04/23 07:54:59;;;;;;;35.13;25.38;;;13.60;99.90;;;;;;4930495;29;20051;-66
2023/04/23 07:57:25;;;;;;;32.92;23.55;;;13.60;99.90;;;;;;4925292;29;20067;-66
2023/04/23 07:59:51;;;;;;;32.03;23.23;;;13.70;99.90;;;;;;4922582;29;20523;-67
2023/04/23 08:02:17;;;;;;;34.72;23.90;;;13.70;99.90;;;;;;4921422;29;20044;-68
2023/04/23 08:04:42;;;;;;;37.85;23.75;;;13.80;99.90;;;;;;4926126;29;20578;-68
2023/04/23 08:07:08;;;;;;;30.88;23.63;;;13.90;99.90;;;;;;4931942;29;20067;-68
2023/04/23 08:09:34;;;;;;;30.88;22.77;;;14.00;99.90;;;;;;4928530;29;20039;-67
2023/04/23 08:12:00;;;;;;;31.52;23.00;;;14.10;99.90;;;;;;4920704;29;20062;-68
2023/04/23 08:14:26;;;;;;;31.02;22.10;;;14.20;99.90;;;;;;4927087;29;20426;-66
2023/04/23 08:16:51;;;;;;;26.73;19.70;;;14.30;99.90;;;;;;4927099;29;20094;-66
2023/04/23 08:19:17;;;;;;;29.77;21.05;;;14.20;99.90;;;;;;4929010;29;20475;-68
2023/04/23 08:21:43;;;;;;;27.75;20.48;;;14.40;99.90;;;;;;4924129;29;20048;-65
2023/04/23 08:24:08;;;;;;;24.77;18.27;;;14.30;99.90;;;;;;4926325;29;20402;-66
2023/04/23 08:26:36;;;;;;;26.80;18.33;;;14.40;99.90;;;;;;4925154;29;20040;-67
2023/04/23 08:29:02;;;;;;;24.17;17.98;;;14.40;99.90;;;;;;4926738;29;20044;-66
2023/04/23 08:31:27;;;;;;;25.92;18.83;;;14.40;99.90;;;;;;4922895;29;20039;-65
2023/04/23 08:33:56;;;;;;;27.23;18.73;;;14.60;99.90;;;;;;4925291;29;20052;-66
2023/04/23 08:36:21;;;;;;;28.10;17.60;;;14.60;99.90;;;;;;4923689;29;20618;-66
2023/04/23 08:38:47;;;;;;;22.73;16.33;;;14.70;99.90;;;;;;4923102;29;20147;-67
2023/04/23 08:41:16;;;;;;;23.52;16.13;;;14.90;99.90;;;;;;4934683;29;20047;-67
2023/04/23 08:44:08;;;;;;;22.08;15.48;;;14.90;99.90;;;;;;4934050;29;20043;-66
2023/04/23 08:46:37;;;;;;;21.10;15.45;;;15.00;99.90;;;;;;4926903;29;20803;-66
2023/04/23 08:49:09;;;;;;;22.40;15.05;;;15.10;99.90;;;;;;4935940;29;20447;-68
2023/04/23 08:51:37;;;;;;;21.88;15.07;;;15.20;99.90;;;;;;4934610;29;20052;-67
2023/04/23 08:54:04;;;;;;;20.33;13.88;;;15.20;99.90;;;;;;4931686;29;20047;-67
2023/04/23 08:56:36;;;;;;;21.30;14.32;;;15.30;99.90;;;;;;4921879;29;20098;-67
2023/04/23 08:59:02;;;;;;;19.50;13.30;;;15.30;99.90;;;;;;4924992;29;20426;-67
2023/04/23 09:01:29;;;;;;;21.80;14.15;;;15.40;99.90;;;;;;4928402;29;20317;-67
2023/04/23 09:03:55;;;;;;;21.67;14.60;;;15.50;99.90;;;;;;4925769;29;20071;-67
2023/04/23 09:06:28;;;;;;;18.17;12.20;;;15.70;99.90;;;;;;4930414;29;20053;-67
2023/04/23 09:08:54;;;;;;;21.20;13.70;;;16.00;99.90;;;;;;4922347;29;20055;-65
2023/04/23 09:11:22;;;;;;;18.05;12.82;;;16.10;99.90;;;;;;4934507;29;20043;-67
2023/04/23 09:13:48;;;;;;;18.92;13.38;;;16.20;99.90;;;;;;4935553;29;20067;-67
2023/04/23 09:16:14;;;;;;;19.33;12.82;;;16.30;99.90;;;;;;4934299;29;20062;-65
2023/04/23 09:18:41;;;;;;;19.70;13.07;;;16.20;99.90;;;;;;4931316;29;20059;-67
2023/04/23 09:21:07;;;;;;;16.88;11.60;;;16.40;99.90;;;;;;4932520;29;20391;-67
2023/04/23 09:23:33;;;;;;;18.08;12.00;;;16.50;99.90;;;;;;4929854;29;20047;-67
2023/04/23 09:25:58;;;;;;;17.40;12.15;;;16.60;99.90;;;;;;4934979;29;20063;-67
2023/04/23 09:28:36;;;;;;;17.73;12.73;;;16.70;99.90;;;;;;4936515;29;20039;-67
2023/04/23 09:31:04;;;;;;;13.88;10.13;;;16.90;99.90;;;;;;4935482;29;20047;-68
2023/04/23 09:33:33;;;;;;;16.27;10.70;;;17.10;99.90;;;;;;4933945;29;20523;-66
2023/04/23 09:36:08;;;;;;;15.52;10.93;;;17.20;99.90;;;;;;4932320;29;20050;-67
2023/04/23 09:38:34;;;;;;;17.05;11.60;;;17.20;99.90;;;;;;4935574;29;20058;-67
2023/04/23 09:41:20;;;;;;;14.32;10.82;;;17.10;99.90;;;;;;4921246;29;20048;-66
2023/04/23 09:43:47;;;;;;;15.98;10.73;;;17.00;99.90;;;;;;4923604;29;20052;-66
2023/04/23 09:46:12;;;;;;;17.92;11.77;;;17.20;99.90;;;;;;4930769;29;20055;-67
2023/04/23 09:48:42;;;;;;;16.70;11.23;;;17.20;99.90;;;;;;4930392;29;20111;-67
2023/04/23 09:51:07;;;;;;;15.02;10.45;;;17.20;99.90;;;;;;4934348;29;20063;-66
2023/04/23 09:53:42;;;;;;;14.85;10.18;;;17.20;99.90;;;;;;4931817;29;20154;-66
2023/04/23 09:56:07;;;;;;;14.57;10.95;;;17.20;99.90;;;;;;4935647;29;20043;-66
2023/04/23 09:58:33;;;;;;;13.07;10.30;;;17.20;99.90;;;;;;4934951;29;20111;-66
2023/04/23 10:01:06;;;;;;;13.27;10.20;;;17.20;99.90;;;;;;4934459;29;20047;-66
2023/04/23 10:03:32;;;;;;;14.82;9.88;;;17.20;99.90;;;;;;4934787;29;20044;-67
2023/04/23 10:05:58;;;;;;;12.93;8.13;;;17.30;99.90;;;;;;4934693;29;20043;-67
2023/04/23 10:08:24;;;;;;;13.45;8.50;;;17.30;99.90;;;;;;4924238;29;20047;-67
2023/04/23 10:10:50;;;;;;;12.02;7.78;;;17.30;99.90;;;;;;4928125;29;20063;-67
2023/04/23 10:13:17;;;;;;;12.85;6.85;;;17.40;99.90;;;;;;4927813;29;20072;-67
2023/04/23 10:15:46;;;;;;;8.07;6.18;;;17.60;99.90;;;;;;4930203;29;20061;-67
2023/04/23 10:18:13;;;;;;;10.70;6.30;;;17.80;99.90;;;;;;4931087;29;20459;-68
2023/04/23 10:20:40;;;;;;;9.35;6.32;;;18.00;99.90;;;;;;4929886;29;20048;-68
2023/04/23 10:23:08;;;;;;;10.82;5.85;;;18.10;99.90;;;;;;4930417;29;20053;-68
2023/04/23 10:25:37;;;;;;;9.20;5.55;;;18.20;99.90;;;;;;4930303;29;20122;-67
2023/04/23 10:28:06;;;;;;;9.52;5.88;;;18.30;99.90;;;;;;4931448;29;20047;-68
2023/04/23 10:30:32;;;;;;;8.15;4.40;;;18.40;99.90;;;;;;4933921;29;20114;-67
2023/04/23 10:33:00;;;;;;;10.25;4.90;;;18.50;99.90;;;;;;4929108;29;20055;-68
2023/04/23 10:35:26;;;;;;;8.75;5.25;;;18.60;99.90;;;;;;4927119;29;20436;-68
2023/04/23 10:37:52;;;;;;;8.98;4.40;;;18.60;99.90;;;;;;4926043;29;20107;-68
2023/04/23 10:40:26;;;;;;;10.48;4.60;;;18.60;99.90;;;;;;4922823;29;20102;-68
2023/04/23 10:42:52;;;;;;;9.10;4.55;;;18.50;99.90;;;;;;4924647;29;20047;-68
2023/04/23 10:45:20;;;;;;;8.63;4.22;;;18.40;99.90;;;;;;4926967;29;20432;-66
2023/04/23 10:47:46;;;;;;;8.75;4.40;;;18.40;99.90;;;;;;4928551;29;20480;-67
2023/04/23 10:50:28;;;;;;;6.97;3.72;;;18.50;99.90;;;;;;4928206;29;20063;-66
2023/04/23 10:52:55;;;;;;;9.30;4.75;;;18.60;99.90;;;;;;4927800;29;20367;-67
2023/04/23 10:55:25;;;;;;;8.18;4.55;;;18.70;99.90;;;;;;4924063;29;20420;-66
2023/04/23 10:57:57;;;;;;;8.65;4.10;;;18.60;99.90;;;;;;4927191;29;20051;-64
2023/04/23 11:00:23;;;;;;;11.52;4.72;;;18.60;99.90;;;;;;4928516;29;20135;-64
2023/04/23 11:02:49;;;;;;;10.07;4.82;;;18.60;99.90;;;;;;4924477;29;20122;-64
2023/04/23 11:05:16;;;;;;;8.40;3.80;;;18.50;99.90;;;;;;4930353;29;20284;-64
2023/04/23 11:07:41;;;;;;;8.65;3.90;;;18.60;99.90;;;;;;4928035;29;20080;-65
2023/04/23 11:10:14;;;;;;;9.25;3.92;;;18.80;99.90;;;;;;4928508;29;20542;-64
2023/04/23 11:12:40;;;;;;;8.45;4.05;;;19.00;99.90;;;;;;4927588;29;20052;-65
2023/04/23 11:15:11;;;;;;;9.05;3.70;;;18.90;99.90;;;;;;4932135;29;20505;-64
2023/04/23 11:17:36;;;;;;;7.88;3.10;;;19.00;99.90;;;;;;4929331;29;20099;-63
2023/04/23 11:20:12;;;;;;;5.43;2.50;;;19.10;99.90;;;;;;4925294;29;20075;-63
2023/04/23 11:22:47;;;;;;;10.77;3.38;;;19.10;99.90;;;;;;4929386;29;20048;-65
2023/04/23 11:25:18;;;;;;;6.60;2.88;;;19.10;99.90;;;;;;4929134;29;20423;-65
2023/04/23 11:27:46;;;;;;;7.70;2.92;;;19.20;99.90;;;;;;4929706;29;20065;-66
2023/04/23 11:30:14;;;;;;;6.45;2.65;;;19.20;99.90;;;;;;4928166;29;20142;-66
2023/04/23 11:32:43;;;;;;;6.65;2.35;;;19.40;99.90;;;;;;4931941;29;20058;-66
2023/04/23 11:35:10;;;;;;;9.07;2.50;;;19.70;99.90;;;;;;4931861;29;20050;-65
2023/04/23 11:37:40;;;;;;;7.72;2.30;;;20.00;99.90;;;;;;4926483;29;20231;-66
2023/04/23 11:40:14;;;;;;;8.60;2.45;;;20.10;99.90;;;;;;4932923;29;20091;-66
2023/04/23 11:42:48;;;;;;;8.95;1.90;;;20.30;99.90;;;;;;4932768;29;20102;-66
2023/04/23 11:45:22;;;;;;;8.45;2.08;;;20.40;99.90;;;;;;4933062;29;20044;-67
2023/04/23 11:47:49;;;;;;;5.67;1.77;;;20.40;99.90;;;;;;4931109;29;20048;-66
2023/04/23 11:50:19;;;;;;;6.22;1.70;;;20.30;99.90;;;;;;4932150;29;20291;-66
2023/04/23 11:52:45;;;;;;;7.07;1.58;;;20.00;99.90;;;;;;4931490;29;20440;-68
2023/04/23 11:55:11;;;;;;;7.28;1.75;;;19.80;99.90;;;;;;4929212;29;20048;-66
2023/04/23 11:57:45;;;;;;;5.65;1.60;;;19.40;99.90;;;;;;4925165;29;20083;-66
2023/04/23 12:00:13;;;;;;;3.85;1.23;;;19.20;99.90;;;;;;4932693;29;20124;-66
2023/04/23 12:02:51;;;;;;;5.82;1.40;;;19.00;99.90;;;;;;4932009;29;20483;-67
2023/04/23 12:05:21;;;;;;;5.57;1.50;;;18.90;99.90;;;;;;4922042;29;20067;-66
2023/04/23 12:07:51;;;;;;;8.65;2.05;;;18.90;99.90;;;;;;4932911;29;20050;-66
2023/04/23 12:10:20;;;;;;;5.93;1.50;;;19.00;99.90;;;;;;4933693;29;20104;-66
2023/04/23 12:12:52;;;;;;;6.18;1.55;;;19.00;99.90;;;;;;4933121;29;20139;-66
2023/04/23 12:15:19;;;;;;;5.13;1.40;;;19.10;99.90;;;;;;4936633;29;20050;-66
2023/04/23 12:18:06;;;;;;;4.53;1.55;;;19.20;99.90;;;;;;4936668;29;20090;-66
2023/04/23 12:20:32;;;;;;;6.78;1.60;;;19.30;99.90;;;;;;4947671;29;20122;-67
2023/04/23 12:23:03;;;;;;;6.65;1.42;;;19.60;99.90;;;;;;4935859;29;20520;-66
2023/04/23 12:25:29;;;;;;;7.70;1.40;;;19.70;99.90;;;;;;4934349;29;20047;-66
2023/04/23 12:27:59;;;;;;;6.65;1.40;;;19.70;99.90;;;;;;4934329;29;20502;-66
2023/04/23 12:30:28;;;;;;;5.38;1.50;;;19.80;99.90;;;;;;4936048;29;20096;-66
2023/04/23 12:33:00;;;;;;;6.22;1.20;;;19.90;99.90;;;;;;4934021;29;20076;-66
2023/04/23 12:35:40;;;;;;;6.78;1.63;;;20.00;99.90;;;;;;4936305;29;20075;-66